North Platte Regional Airport Lee Bird Field
KLBF : now visible

Airfield :











YOU CAN JOIN US ON...

 
LOGIN :

Register | Disclaimer

   EN    FR    IT 

 









Legend :    VFR   Marginal VFR   IFR   Intensive IFR   Very Intensive IFR
Visi :
Ceiling :
>= 8 km
>= 3000ft
5 to 8 km
1000 to 3000 ft
1500m to 5 km
500 to 1000 ft
800 to 1500m
200 to 500 ft
< 800m
< 200 ft
Symbols :   Thunderstorms  Fog  Heavy snow  Heavy precipitations  Wind > 20 kt






- Airport Elevation : 2777 ft
- IATA code : LBF


KLBF - North Platte Regional Lee Bird Field

CURRENT METAR :
  • 190153Z AUTO 30007KT 10SM CLR 06/M03 A2992 RMK AO2 SLP141 T00561028

EXPIRED METARs :
  • 190053Z AUTO 01006KT 10SM CLR 10/M03 A2990 RMK AO2 SLP132 T01001028
  • 182353Z AUTO 01007KT 10SM CLR 12/M02 A2988 RMK AO2 SLP122 T01171022 10200 20117 53018

TAF KLBF
Valid from the 19 at 00:00 until the 20 at 00:00 UTC


182323Z 1900/1924 35011KT P6SM SKC
FM190300 VRB04KT P6SM FEW250
FM192100 17011KT P6SM SKC
FM192300 15009KT P6SM FEW250



MET'MAP, your aeronautical weather chart ! - Copyright ORBIFLY December 2007 - Disclaimer

ORBIFLY MET'MAP TEAM :

Programming & Development : Alexandra Zaïnal
Concept & Development : Baudouin d'Aumeries
Co-Development & Prog : Marc-Olivier Méhu
Technical & hardware support : Manuel Goepfert

Contact : metmap@orbifly.com




SOURCES & CREDITS :

   NOAA       Earth
Advisory